Orbital elements of FENGYUN 1C DEB
| Launched | 9 May 1999 |
| Flight ended | – |
| Launch site | Taiyuan Space Center, PRC |
| Owner | People's Republic of China |
| NORAD ID | 36281 |
| Date fetched |
Epoch osculation |
Inc. [°] |
Ecc. | RA asc node [hr] |
Arg Peri. [°] |
Mean anom [°] |
Mean motion [rev/day] |
Abs. mag |
| Date fetched |
Epoch osculation |
Inc. [°] |
Ecc. | RA asc node [hr] |
Arg Peri. [°] |
Mean anom [°] |
Mean motion [rev/day] |
Abs. mag |
| 2026 May 09 17:57 | 2026 May 04 05:33:17 | 99.2594 | 0.02897 | 2.9228 | 104.6573 | 258.6876 | 13.61172 | – |
| 2026 May 08 17:57 | 2026 May 04 05:33:17 | 99.2594 | 0.02897 | 2.9228 | 104.6573 | 258.6876 | 13.61172 | – |
| 2026 May 07 17:58 | 2026 May 04 05:33:17 | 99.2594 | 0.02897 | 2.9228 | 104.6573 | 258.6876 | 13.61172 | – |
| 2026 May 06 17:57 | 2026 May 04 05:33:17 | 99.2594 | 0.02897 | 2.9228 | 104.6573 | 258.6876 | 13.61172 | – |
| 2026 May 05 17:57 | 2026 May 04 05:33:17 | 99.2594 | 0.02897 | 2.9228 | 104.6573 | 258.6876 | 13.61172 | – |
| 2026 May 04 17:57 | 2026 Apr 30 11:35:00 | 99.2597 | 0.02894 | 2.6857 | 114.2739 | 258.6876 | 13.61172 | – |
| 2026 May 03 17:57 | 2026 Apr 30 11:35:00 | 99.2597 | 0.02894 | 2.6857 | 114.2739 | 258.6876 | 13.61172 | – |
| 2026 May 02 17:57 | 2026 Apr 30 11:35:00 | 99.2597 | 0.02894 | 2.6857 | 114.2739 | 258.6876 | 13.61172 | – |
| 2026 May 01 17:56 | 2026 Apr 30 11:35:00 | 99.2597 | 0.02894 | 2.6857 | 114.2739 | 258.6876 | 13.61172 | – |
| 2026 Apr 30 17:56 | 2026 Apr 30 11:35:00 | 99.2597 | 0.02894 | 2.6857 | 114.2739 | 258.6876 | 13.61172 | – |
| 2026 Apr 29 17:57 | 2026 Apr 23 04:55:45 | 99.2590 | 0.02884 | 2.2253 | 132.9948 | 258.6876 | 13.61172 | – |
| 2026 Apr 28 17:56 | 2026 Apr 23 04:55:45 | 99.2590 | 0.02884 | 2.2253 | 132.9948 | 258.6876 | 13.61172 | – |
| 2026 Apr 27 17:58 | 2026 Apr 23 04:55:45 | 99.2590 | 0.02884 | 2.2253 | 132.9948 | 258.6876 | 13.61172 | – |
| 2026 Apr 26 17:58 | 2026 Apr 23 04:55:45 | 99.2590 | 0.02884 | 2.2253 | 132.9948 | 258.6876 | 13.61172 | – |
| 2026 Apr 25 17:58 | 2026 Apr 23 04:55:45 | 99.2590 | 0.02884 | 2.2253 | 132.9948 | 258.6876 | 13.61172 | – |
| 2026 Apr 24 17:59 | 2026 Apr 23 04:55:45 | 99.2590 | 0.02884 | 2.2253 | 132.9948 | 258.6876 | 13.61172 | – |
| 2026 Apr 23 17:57 | 2026 Apr 19 12:43:04 | 99.2591 | 0.02877 | 1.9927 | 142.5153 | 258.6876 | 13.61172 | – |
| 2026 Apr 22 17:57 | 2026 Apr 19 12:43:04 | 99.2591 | 0.02877 | 1.9927 | 142.5153 | 258.6876 | 13.61172 | – |
| 2026 Apr 21 17:57 | 2026 Apr 19 12:43:04 | 99.2591 | 0.02877 | 1.9927 | 142.5153 | 258.6876 | 13.61172 | – |
| 2026 Apr 20 17:57 | 2026 Apr 19 12:43:04 | 99.2591 | 0.02877 | 1.9927 | 142.5153 | 258.6876 | 13.61172 | – |
| 2026 Apr 19 17:58 | 2026 Apr 19 12:43:04 | 99.2591 | 0.02877 | 1.9927 | 142.5153 | 258.6876 | 13.61172 | – |
| 2026 Apr 18 17:56 | 2026 Apr 12 06:03:21 | 99.2583 | 0.02866 | 1.5323 | 161.4291 | 258.6876 | 13.61172 | – |
| 2026 Apr 16 17:57 | 2026 Apr 12 06:03:21 | 99.2583 | 0.02866 | 1.5323 | 161.4291 | 258.6876 | 13.61172 | – |
| 2026 Apr 14 17:57 | 2026 Apr 12 06:03:21 | 99.2583 | 0.02866 | 1.5323 | 161.4291 | 258.6876 | 13.61172 | – |
| 2026 Apr 13 17:57 | 2026 Apr 12 06:03:21 | 99.2583 | 0.02866 | 1.5323 | 161.4291 | 258.6876 | 13.61172 | – |
| 2026 Apr 12 17:57 | 2026 Apr 08 05:01:10 | 99.2581 | 0.02861 | 1.2766 | 171.9920 | 258.6876 | 13.61172 | – |